Time;durP1;ratioP1;P1;durP2;ratioP2;P2;SDS_P1;SDS_P2;PMS_P1;PMS_P2;Temp;Humidity;BMP_temperature;BMP_pressure;BME280_temperature;BME280_humidity;BME280_pressure;Samples;Min_cycle;Max_cycle;Signal;HPM_P1;HPM_P2
2023/06/02 00:01:02;;;;;;;12.18;3.85;;;12.20;99.90;;;;;;5056925;28;20044;-76
2023/06/02 00:03:32;;;;;;;11.77;3.47;;;12.20;99.90;;;;;;5080369;28;20032;-76
2023/06/02 00:05:59;;;;;;;15.40;3.55;;;12.20;99.90;;;;;;5053032;28;20044;-76
2023/06/02 00:08:26;;;;;;;10.32;2.92;;;12.20;99.90;;;;;;5044772;28;20037;-76
2023/06/02 00:10:52;;;;;;;13.23;2.95;;;12.20;99.90;;;;;;5035583;28;20048;-76
2023/06/02 00:13:17;;;;;;;12.07;3.15;;;12.20;99.90;;;;;;5052535;28;20507;-76
2023/06/02 00:15:47;;;;;;;11.80;3.30;;;12.20;99.90;;;;;;5042203;28;20033;-76
2023/06/02 00:18:12;;;;;;;17.40;3.58;;;12.20;99.90;;;;;;5063097;28;20081;-76
2023/06/02 00:20:39;;;;;;;15.25;3.42;;;12.10;99.90;;;;;;5056159;28;20067;-76
2023/06/02 00:23:08;;;;;;;10.48;2.70;;;12.10;99.90;;;;;;5036750;28;20090;-76
2023/06/02 00:25:35;;;;;;;15.70;3.17;;;12.20;99.90;;;;;;5051940;28;20094;-76
2023/06/02 00:28:01;;;;;;;16.48;3.88;;;12.10;99.90;;;;;;5056391;28;20438;-76
2023/06/02 00:30:28;;;;;;;12.02;3.15;;;12.10;99.90;;;;;;5065938;28;20093;-76
2023/06/02 00:32:54;;;;;;;14.18;3.30;;;12.10;99.90;;;;;;5052216;28;20037;-77
2023/06/02 00:35:20;;;;;;;13.77;3.05;;;12.10;99.90;;;;;;5051698;28;20185;-76
2023/06/02 00:37:46;;;;;;;11.35;3.20;;;12.10;99.90;;;;;;5058553;28;20548;-77
2023/06/02 00:40:13;;;;;;;13.48;3.10;;;12.10;99.90;;;;;;5062249;28;20048;-76
2023/06/02 00:42:38;;;;;;;8.35;2.72;;;12.10;99.90;;;;;;5059754;28;20493;-76
2023/06/02 00:45:05;;;;;;;11.68;2.78;;;12.00;99.90;;;;;;5048875;28;20043;-77
2023/06/02 00:47:30;;;;;;;14.63;2.75;;;12.00;99.90;;;;;;5056043;28;20032;-76
2023/06/02 00:49:57;;;;;;;15.85;3.30;;;12.00;99.90;;;;;;5070891;28;20528;-76
2023/06/02 00:52:24;;;;;;;15.18;3.42;;;12.00;99.90;;;;;;5036418;28;20439;-76
2023/06/02 00:54:49;;;;;;;15.52;3.58;;;12.00;99.90;;;;;;5062498;28;20037;-76
2023/06/02 00:57:16;;;;;;;14.63;3.10;;;12.30;99.90;;;;;;5051926;28;20055;-76
2023/06/02 00:59:43;;;;;;;11.73;2.90;;;12.00;99.90;;;;;;5051867;28;20032;-76
2023/06/02 01:02:10;;;;;;;11.02;2.67;;;12.00;99.90;;;;;;5038699;28;20043;-76
2023/06/02 01:04:40;;;;;;;15.18;3.10;;;12.00;99.90;;;;;;5044024;28;20492;-76
2023/06/02 01:07:10;;;;;;;17.40;3.20;;;12.00;99.90;;;;;;5066446;28;20040;-76
2023/06/02 01:09:36;;;;;;;15.15;3.40;;;12.00;99.90;;;;;;5044572;28;20583;-76
2023/06/02 01:12:02;;;;;;;15.13;3.40;;;12.00;99.90;;;;;;5058170;28;20115;-76
2023/06/02 01:14:28;;;;;;;15.23;3.15;;;12.00;99.90;;;;;;5062274;28;20035;-77
2023/06/02 01:16:54;;;;;;;15.90;3.10;;;12.00;99.90;;;;;;5065415;28;20060;-76
2023/06/02 01:19:21;;;;;;;12.35;3.28;;;12.00;99.90;;;;;;5056357;28;20036;-77
2023/06/02 01:21:58;;;;;;;11.55;2.80;;;12.10;99.90;;;;;;5041296;28;20048;-77
2023/06/02 01:24:36;;;;;;;17.75;3.88;;;12.00;99.90;;;;;;5056215;28;20036;-76
2023/06/02 01:27:08;;;;;;;16.98;2.80;;;11.90;99.90;;;;;;5058850;28;20101;-76
2023/06/02 01:29:36;;;;;;;16.92;3.78;;;11.90;99.90;;;;;;5068928;28;20032;-76
2023/06/02 01:32:13;;;;;;;15.05;3.00;;;11.90;99.90;;;;;;5037810;28;20028;-76
2023/06/02 01:34:52;;;;;;;13.05;2.92;;;11.90;99.90;;;;;;5055841;28;20037;-76
2023/06/02 01:37:21;;;;;;;15.10;3.00;;;11.90;99.90;;;;;;5053670;28;20040;-76
2023/06/02 01:39:48;;;;;;;12.23;3.10;;;11.90;99.90;;;;;;5043950;28;20131;-76
2023/06/02 01:42:15;;;;;;;18.58;2.80;;;11.90;99.90;;;;;;5054251;28;20094;-76
2023/06/02 01:44:42;;;;;;;15.30;2.92;;;11.90;99.90;;;;;;5056442;28;20063;-76
2023/06/02 01:47:12;;;;;;;16.13;3.38;;;11.90;99.90;;;;;;5055957;28;20115;-76
2023/06/02 01:49:37;;;;;;;11.68;3.10;;;11.90;99.90;;;;;;5043264;28;20040;-76
2023/06/02 01:52:03;;;;;;;16.10;3.40;;;12.20;99.90;;;;;;5044218;28;20032;-77
2023/06/02 01:54:29;;;;;;;12.93;3.03;;;11.90;99.90;;;;;;5059759;28;20043;-76
2023/06/02 01:56:55;;;;;;;15.27;3.05;;;12.00;99.90;;;;;;5066302;28;20044;-76
2023/06/02 01:59:22;;;;;;;15.27;3.00;;;11.80;99.90;;;;;;5058023;28;20093;-76
2023/06/02 02:01:47;;;;;;;14.05;2.90;;;11.80;99.90;;;;;;5055088;28;20447;-76
2023/06/02 02:04:14;;;;;;;12.75;2.78;;;11.90;99.90;;;;;;5057317;28;20048;-76
2023/06/02 02:06:42;;;;;;;15.68;3.58;;;11.80;99.90;;;;;;5047346;28;20047;-76
2023/06/02 02:09:08;;;;;;;15.30;3.50;;;11.80;99.90;;;;;;5058449;28;20086;-76
2023/06/02 02:11:34;;;;;;;12.23;3.10;;;11.80;99.90;;;;;;5037715;28;20040;-76
2023/06/02 02:14:04;;;;;;;12.80;2.88;;;11.90;99.90;;;;;;5039044;28;20068;-76
2023/06/02 02:16:30;;;;;;;14.70;3.30;;;11.80;99.90;;;;;;5061289;28;20040;-76
2023/06/02 02:18:56;;;;;;;12.57;3.30;;;11.80;99.90;;;;;;5069397;28;20067;-76
2023/06/02 02:21:22;;;;;;;13.07;2.85;;;11.80;99.90;;;;;;5054743;28;20092;-76
2023/06/02 02:23:47;;;;;;;11.20;3.00;;;11.70;99.90;;;;;;5050102;28;20133;-76
2023/06/02 02:26:13;;;;;;;12.75;2.75;;;11.70;99.90;;;;;;5032090;28;20044;-76
2023/06/02 02:28:39;;;;;;;13.65;2.80;;;11.70;99.90;;;;;;5046840;28;20044;-76
2023/06/02 02:31:04;;;;;;;15.52;3.25;;;11.70;99.90;;;;;;5056851;28;20493;-77
2023/06/02 02:33:30;;;;;;;18.20;3.38;;;11.70;99.90;;;;;;5054664;28;20090;-76
2023/06/02 02:35:56;;;;;;;16.40;3.20;;;11.70;99.90;;;;;;5056737;28;20390;-77
2023/06/02 02:38:22;;;;;;;13.30;3.00;;;11.70;99.90;;;;;;5047857;28;20040;-77
2023/06/02 02:40:50;;;;;;;13.57;2.85;;;11.70;99.90;;;;;;5060610;28;20036;-77
2023/06/02 02:43:17;;;;;;;16.92;3.20;;;11.60;99.90;;;;;;5055030;28;20439;-77
2023/06/02 02:45:43;;;;;;;12.60;2.92;;;11.60;99.90;;;;;;5059962;28;20044;-78
2023/06/02 02:48:09;;;;;;;12.43;3.20;;;11.60;99.90;;;;;;5050291;28;20161;-77
2023/06/02 02:50:34;;;;;;;12.05;2.53;;;11.60;99.90;;;;;;5054355;28;20090;-76
2023/06/02 02:53:01;;;;;;;15.15;2.92;;;11.60;99.90;;;;;;5056561;28;20117;-76
2023/06/02 02:55:26;;;;;;;14.98;2.80;;;11.60;99.90;;;;;;5043604;28;20040;-76
2023/06/02 02:57:52;;;;;;;14.60;3.03;;;11.60;99.90;;;;;;5065684;28;20048;-76
2023/06/02 03:00:19;;;;;;;12.75;2.92;;;11.60;99.90;;;;;;5066302;28;20035;-76
2023/06/02 03:02:47;;;;;;;13.93;3.22;;;11.60;99.90;;;;;;5054369;28;20043;-76
2023/06/02 03:05:13;;;;;;;12.68;2.75;;;11.50;99.90;;;;;;5033632;28;20033;-76
2023/06/02 03:07:39;;;;;;;20.17;3.03;;;11.60;99.90;;;;;;5051193;28;20094;-76
2023/06/02 03:10:07;;;;;;;14.18;3.13;;;11.50;99.90;;;;;;5065362;28;20074;-76
2023/06/02 03:12:33;;;;;;;20.55;3.10;;;11.60;99.90;;;;;;5041485;28;20047;-76
2023/06/02 03:15:00;;;;;;;13.20;2.90;;;11.50;99.90;;;;;;5053888;28;20400;-76
2023/06/02 03:17:27;;;;;;;15.13;3.28;;;11.50;99.90;;;;;;5053975;28;20086;-76
2023/06/02 03:19:54;;;;;;;16.30;3.08;;;11.60;99.90;;;;;;5078409;28;20048;-76
2023/06/02 03:22:20;;;;;;;11.85;2.80;;;11.50;99.90;;;;;;5059351;28;20072;-76
2023/06/02 03:24:46;;;;;;;12.98;3.47;;;11.50;99.90;;;;;;5036180;28;20071;-76
2023/06/02 03:27:13;;;;;;;18.58;3.63;;;11.50;99.90;;;;;;5054409;28;20047;-76
2023/06/02 03:29:42;;;;;;;18.00;3.22;;;11.50;99.90;;;;;;5063451;28;20484;-76
2023/06/02 03:32:11;;;;;;;10.48;2.40;;;11.50;99.90;;;;;;5061097;28;20044;-76
2023/06/02 03:34:39;;;;;;;13.05;2.85;;;11.50;99.90;;;;;;5049737;28;20080;-76
2023/06/02 03:37:06;;;;;;;13.57;3.28;;;11.50;99.90;;;;;;5036750;28;20109;-76
2023/06/02 03:39:32;;;;;;;15.25;3.03;;;11.50;99.90;;;;;;5052983;28;20048;-76
2023/06/02 03:41:58;;;;;;;12.10;2.80;;;11.60;99.90;;;;;;5048106;28;20123;-76
2023/06/02 03:44:24;;;;;;;16.10;3.60;;;11.60;99.90;;;;;;5045587;28;20071;-76
2023/06/02 03:46:49;;;;;;;13.63;3.25;;;11.50;99.90;;;;;;5055734;28;20036;-76
2023/06/02 03:49:15;;;;;;;14.55;3.83;;;11.60;99.90;;;;;;5034047;28;20036;-76
2023/06/02 03:51:44;;;;;;;16.33;3.42;;;11.60;99.90;;;;;;5055162;28;20036;-76
2023/06/02 03:54:10;;;;;;;13.98;2.85;;;12.40;99.90;;;;;;5053131;28;20062;-76
2023/06/02 03:56:35;;;;;;;15.77;3.78;;;11.60;99.90;;;;;;5061060;28;20113;-76
2023/06/02 03:59:02;;;;;;;19.17;3.20;;;11.60;99.90;;;;;;5045890;28;20503;-76
2023/06/02 04:01:28;;;;;;;13.85;2.83;;;11.60;99.90;;;;;;5053624;28;20122;-76
2023/06/02 04:03:54;;;;;;;17.13;3.55;;;11.60;99.90;;;;;;5050044;28;20055;-76
2023/06/02 04:06:21;;;;;;;11.32;3.33;;;11.70;99.90;;;;;;5041658;28;20097;-76
2023/06/02 04:08:47;;;;;;;13.73;3.30;;;11.90;99.90;;;;;;5064098;28;20066;-76
2023/06/02 04:11:13;;;;;;;14.80;3.20;;;11.60;99.90;;;;;;5035162;28;20033;-76
2023/06/02 04:13:39;;;;;;;18.42;3.35;;;11.60;99.90;;;;;;5051462;28;20038;-76
2023/06/02 04:16:06;;;;;;;18.13;3.72;;;11.60;99.90;;;;;;5034928;28;20495;-76
2023/06/02 04:18:36;;;;;;;12.90;3.20;;;11.60;99.90;;;;;;5050452;28;20040;-76
2023/06/02 04:21:02;;;;;;;14.23;3.58;;;11.60;99.90;;;;;;5059413;28;20337;-76
2023/06/02 04:23:28;;;;;;;15.20;3.00;;;11.60;99.90;;;;;;5052076;28;20068;-76
2023/06/02 04:25:53;;;;;;;14.85;3.05;;;11.70;99.90;;;;;;5072785;28;20040;-76
2023/06/02 04:28:20;;;;;;;14.38;3.15;;;11.80;99.90;;;;;;5063602;28;20462;-76
2023/06/02 04:30:48;;;;;;;15.18;3.22;;;11.70;99.90;;;;;;5061132;28;20055;-76
2023/06/02 04:33:14;;;;;;;17.45;3.13;;;11.70;99.90;;;;;;5067268;28;20064;-76
2023/06/02 04:35:39;;;;;;;10.30;2.65;;;11.70;99.90;;;;;;5052233;28;20071;-76
2023/06/02 04:38:07;;;;;;;11.85;2.75;;;11.70;99.90;;;;;;5074077;28;20480;-76
2023/06/02 04:40:32;;;;;;;12.77;2.85;;;11.70;99.90;;;;;;5042444;28;20044;-76
2023/06/02 04:42:59;;;;;;;16.08;3.42;;;11.70;99.90;;;;;;5067890;28;20094;-76
2023/06/02 04:45:24;;;;;;;13.35;3.20;;;11.70;99.90;;;;;;5045702;28;20040;-76
2023/06/02 04:47:52;;;;;;;12.02;3.08;;;12.10;99.90;;;;;;5072993;28;20036;-76
2023/06/02 04:50:17;;;;;;;15.43;3.10;;;11.70;99.90;;;;;;5077841;28;20036;-76
2023/06/02 04:52:44;;;;;;;16.77;2.75;;;11.80;99.90;;;;;;5055586;28;20024;-76
2023/06/02 04:55:11;;;;;;;16.02;3.22;;;11.80;99.90;;;;;;5053992;28;20048;-76
2023/06/02 04:57:37;;;;;;;10.50;3.22;;;11.80;99.90;;;;;;5057945;28;20418;-76
2023/06/02 05:00:04;;;;;;;14.73;3.42;;;11.80;99.90;;;;;;5064282;28;20089;-76
2023/06/02 05:02:31;;;;;;;17.02;3.10;;;11.90;99.90;;;;;;5055530;28;20045;-76
2023/06/02 05:04:57;;;;;;;11.70;2.58;;;11.80;99.90;;;;;;5032559;28;20067;-76
2023/06/02 05:07:23;;;;;;;19.65;3.30;;;11.90;99.90;;;;;;5057933;28;20395;-76
2023/06/02 05:09:50;;;;;;;14.40;3.28;;;11.90;99.90;;;;;;5062115;28;20044;-76
2023/06/02 05:12:18;;;;;;;10.32;2.58;;;11.90;99.90;;;;;;5060505;28;20135;-76
2023/06/02 05:14:44;;;;;;;14.98;3.83;;;11.90;99.90;;;;;;5051630;28;20481;-76
2023/06/02 05:17:10;;;;;;;13.48;3.47;;;12.00;99.90;;;;;;5054241;28;20039;-76
2023/06/02 05:19:39;;;;;;;13.60;2.90;;;12.00;99.90;;;;;;5052471;28;20086;-76
2023/06/02 05:22:05;;;;;;;14.52;3.50;;;12.00;99.90;;;;;;5055298;28;20037;-76
2023/06/02 05:24:31;;;;;;;13.50;3.20;;;12.00;99.90;;;;;;5052378;28;20063;-76
2023/06/02 05:26:56;;;;;;;15.02;3.55;;;12.10;99.90;;;;;;5057524;28;20052;-76
2023/06/02 05:29:22;;;;;;;11.68;2.63;;;12.20;99.90;;;;;;5047833;28;20044;-76
2023/06/02 05:31:47;;;;;;;14.45;3.17;;;12.10;99.90;;;;;;5062851;28;20549;-76
2023/06/02 05:34:13;;;;;;;11.65;2.80;;;12.10;99.90;;;;;;5052273;28;20047;-76
2023/06/02 05:36:38;;;;;;;11.60;2.65;;;12.20;99.90;;;;;;5052921;28;20036;-76
2023/06/02 05:39:04;;;;;;;15.13;3.00;;;12.20;99.90;;;;;;5057575;28;20044;-76
2023/06/02 05:41:30;;;;;;;16.08;3.53;;;12.30;99.90;;;;;;5065716;28;20599;-75
2023/06/02 05:43:55;;;;;;;15.30;3.33;;;12.30;99.90;;;;;;5051294;28;20053;-76
2023/06/02 05:46:22;;;;;;;11.98;3.28;;;12.30;99.90;;;;;;5044693;28;20037;-77
2023/06/02 05:48:48;;;;;;;15.73;3.58;;;12.40;99.90;;;;;;5054036;28;20048;-77
2023/06/02 05:51:14;;;;;;;15.27;3.38;;;12.40;99.90;;;;;;5034696;28;20029;-76
2023/06/02 05:53:40;;;;;;;17.77;3.80;;;13.00;99.90;;;;;;5037390;28;20111;-76
2023/06/02 05:56:06;;;;;;;12.85;3.05;;;12.40;99.90;;;;;;5068085;28;20127;-77
2023/06/02 05:58:31;;;;;;;13.05;3.42;;;12.50;99.90;;;;;;5052743;28;20032;-76
2023/06/02 06:00:57;;;;;;;15.73;3.42;;;12.50;99.90;;;;;;5039254;28;20037;-77
2023/06/02 06:03:23;;;;;;;13.93;2.97;;;12.50;99.90;;;;;;5065668;28;20032;-77
2023/06/02 06:05:48;;;;;;;10.63;2.90;;;12.50;99.90;;;;;;5053909;28;20455;-77
2023/06/02 06:08:16;;;;;;;14.23;3.00;;;12.60;99.90;;;;;;5074666;28;20040;-77
2023/06/02 06:10:42;;;;;;;15.70;3.03;;;12.60;99.90;;;;;;5052892;28;20551;-76
2023/06/02 06:13:08;;;;;;;12.95;3.15;;;12.60;99.90;;;;;;5063966;28;20039;-76
2023/06/02 06:15:34;;;;;;;17.38;3.22;;;12.70;99.90;;;;;;5054055;28;20059;-77
2023/06/02 06:17:59;;;;;;;14.70;3.50;;;12.70;99.90;;;;;;5050212;28;20439;-76
2023/06/02 06:20:25;;;;;;;13.73;3.05;;;12.70;99.90;;;;;;5038284;28;20480;-76
2023/06/02 06:22:51;;;;;;;15.93;3.38;;;12.70;99.90;;;;;;5058265;28;20052;-76
2023/06/02 06:25:16;;;;;;;17.27;3.28;;;12.70;99.90;;;;;;5064715;28;20040;-77
2023/06/02 06:27:42;;;;;;;14.63;2.90;;;12.80;99.90;;;;;;5073114;28;20043;-76
2023/06/02 06:30:09;;;;;;;16.48;3.40;;;12.90;99.90;;;;;;5051253;28;20141;-77
2023/06/02 06:32:35;;;;;;;18.65;3.63;;;12.90;99.90;;;;;;5055254;28;20082;-77
2023/06/02 06:35:00;;;;;;;17.63;4.60;;;12.90;99.90;;;;;;5054134;28;20040;-77
2023/06/02 06:37:28;;;;;;;16.75;4.18;;;13.00;99.90;;;;;;5075934;28;20033;-78
2023/06/02 06:39:56;;;;;;;17.45;3.40;;;13.00;99.90;;;;;;5052987;28;20059;-78
2023/06/02 06:42:22;;;;;;;16.55;3.22;;;13.10;99.90;;;;;;5069418;28;20033;-78
2023/06/02 06:44:49;;;;;;;14.02;3.28;;;13.10;99.90;;;;;;5033462;28;20081;-76
2023/06/02 06:47:15;;;;;;;15.50;3.67;;;13.20;99.90;;;;;;5053782;28;20072;-76
2023/06/02 06:49:40;;;;;;;18.63;4.10;;;13.20;99.90;;;;;;5052290;28;20068;-78
2023/06/02 06:52:06;;;;;;;19.15;4.03;;;13.20;99.90;;;;;;5034540;28;20028;-78
2023/06/02 06:54:32;;;;;;;17.83;3.72;;;13.20;99.90;;;;;;5038410;28;20150;-78
2023/06/02 06:56:58;;;;;;;16.58;3.78;;;13.70;99.90;;;;;;5050626;28;20451;-78
2023/06/02 06:59:26;;;;;;;17.02;3.80;;;13.30;99.90;;;;;;5060232;28;20465;-78
2023/06/02 07:01:53;;;;;;;20.25;3.90;;;13.40;99.90;;;;;;5044360;28;20046;-78
2023/06/02 07:04:21;;;;;;;13.77;3.58;;;13.40;99.90;;;;;;5034392;28;20116;-79
2023/06/02 07:06:47;;;;;;;15.90;3.70;;;13.50;99.90;;;;;;5066374;28;20119;-80
2023/06/02 07:09:15;;;;;;;14.13;3.35;;;13.50;99.90;;;;;;5041872;28;20476;-77
2023/06/02 07:11:42;;;;;;;18.20;3.50;;;13.50;99.90;;;;;;5048251;28;20040;-77
2023/06/02 07:14:08;;;;;;;23.58;4.05;;;13.80;99.90;;;;;;5052843;28;20037;-78
2023/06/02 07:16:34;;;;;;;15.65;3.80;;;13.60;99.90;;;;;;5071345;28;20037;-78
2023/06/02 07:18:59;;;;;;;19.95;3.63;;;13.60;99.90;;;;;;5072901;28;20040;-78
2023/06/02 07:21:25;;;;;;;17.27;4.20;;;13.60;99.90;;;;;;5060892;28;20040;-78
2023/06/02 07:23:51;;;;;;;20.15;4.32;;;13.60;99.90;;;;;;5036401;28;20072;-78
2023/06/02 07:26:16;;;;;;;16.38;3.45;;;13.70;99.90;;;;;;5042213;28;20029;-78
2023/06/02 07:28:42;;;;;;;17.63;4.10;;;14.20;99.90;;;;;;5074893;28;20043;-77
2023/06/02 07:31:08;;;;;;;13.05;3.80;;;13.70;99.90;;;;;;5052345;28;20103;-78
2023/06/02 07:33:33;;;;;;;15.90;3.90;;;13.70;99.90;;;;;;5076153;28;20035;-77
2023/06/02 07:35:59;;;;;;;17.45;4.00;;;13.70;99.90;;;;;;5054598;28;20041;-77
2023/06/02 07:38:25;;;;;;;21.67;4.35;;;13.80;99.90;;;;;;5041681;28;20425;-78
2023/06/02 07:40:50;;;;;;;12.98;3.88;;;14.80;99.90;;;;;;5054740;28;20076;-77
2023/06/02 07:43:16;;;;;;;17.27;4.03;;;13.80;99.90;;;;;;5047232;28;20044;-78
2023/06/02 07:45:41;;;;;;;18.55;4.43;;;13.90;99.90;;;;;;5050339;28;20037;-79
2023/06/02 07:48:07;;;;;;;20.90;4.82;;;14.80;99.90;;;;;;5066691;28;20208;-78
2023/06/02 07:50:34;;;;;;;15.85;3.88;;;14.00;99.90;;;;;;5082824;28;20044;-78
2023/06/02 07:52:59;;;;;;;16.55;3.85;;;14.00;99.90;;;;;;5056446;28;20453;-77
2023/06/02 07:55:25;;;;;;;16.40;3.92;;;14.10;99.90;;;;;;5065883;28;20522;-78
2023/06/02 07:57:51;;;;;;;15.27;4.60;;;14.10;99.90;;;;;;5074370;28;20455;-78
2023/06/02 08:00:19;;;;;;;17.65;4.18;;;14.40;99.90;;;;;;5072154;28;20123;-78
2023/06/02 08:02:46;;;;;;;21.85;4.35;;;14.20;99.90;;;;;;5061386;28;20111;-78
2023/06/02 08:05:16;;;;;;;15.30;4.05;;;14.20;99.90;;;;;;5037874;28;20032;-77
2023/06/02 08:07:43;;;;;;;15.63;3.92;;;14.40;99.90;;;;;;5044644;28;20052;-77
2023/06/02 08:10:10;;;;;;;14.80;4.07;;;14.30;99.90;;;;;;5041915;28;20042;-77
2023/06/02 08:12:36;;;;;;;18.20;4.18;;;14.30;99.90;;;;;;5028642;28;20060;-77
2023/06/02 08:15:06;;;;;;;16.58;4.03;;;14.40;99.90;;;;;;5040642;28;20516;-77
2023/06/02 08:17:31;;;;;;;19.33;4.15;;;14.40;99.90;;;;;;5054281;28;20036;-77
2023/06/02 08:20:01;;;;;;;18.88;4.05;;;14.50;99.90;;;;;;5082058;28;20459;-78
2023/06/02 08:22:28;;;;;;;20.13;4.25;;;14.50;99.90;;;;;;5030331;28;20060;-78
2023/06/02 08:24:55;;;;;;;15.13;3.83;;;14.60;99.90;;;;;;5054286;28;20090;-77
2023/06/02 08:27:24;;;;;;;17.80;4.63;;;14.70;99.90;;;;;;5066942;28;20044;-78
2023/06/02 08:29:51;;;;;;;14.93;4.30;;;14.70;99.90;;;;;;5037109;28;20044;-77
2023/06/02 08:32:18;;;;;;;21.55;4.93;;;14.80;99.90;;;;;;5050141;28;20043;-77
2023/06/02 08:34:45;;;;;;;15.45;4.18;;;14.80;99.90;;;;;;5059587;28;20032;-77
2023/06/02 08:37:17;;;;;;;15.48;4.30;;;15.40;99.90;;;;;;5048523;28;20055;-77
2023/06/02 08:39:48;;;;;;;17.05;3.88;;;15.00;99.90;;;;;;5065574;28;20381;-77
2023/06/02 08:42:15;;;;;;;18.48;4.70;;;15.40;99.90;;;;;;5052120;28;20111;-77
2023/06/02 08:44:42;;;;;;;24.65;4.82;;;15.10;99.90;;;;;;5052708;28;20071;-77
2023/06/02 08:47:11;;;;;;;17.77;4.40;;;15.10;99.90;;;;;;5056466;28;20043;-78
2023/06/02 08:49:44;;;;;;;15.25;3.95;;;15.20;99.90;;;;;;5064482;28;20518;-77
2023/06/02 08:52:16;;;;;;;22.27;5.00;;;15.40;99.90;;;;;;5034414;28;20040;-77
2023/06/02 08:54:43;;;;;;;18.65;4.55;;;15.60;99.90;;;;;;5050349;28;20104;-77
2023/06/02 08:57:16;;;;;;;23.42;5.32;;;15.80;99.90;;;;;;5048037;28;20408;-77
2023/06/02 08:59:44;;;;;;;15.73;4.53;;;15.90;99.90;;;;;;5053577;28;20076;-77
2023/06/02 09:02:10;;;;;;;16.38;4.80;;;16.00;99.90;;;;;;5063176;28;20114;-77
2023/06/02 09:04:38;;;;;;;19.77;4.72;;;16.20;99.90;;;;;;5049163;28;20484;-77
2023/06/02 09:07:13;;;;;;;14.50;4.25;;;16.30;99.90;;;;;;5062725;28;20512;-77
2023/06/02 09:09:40;;;;;;;21.92;4.60;;;16.40;99.90;;;;;;5069393;28;20037;-77
2023/06/02 09:12:06;;;;;;;19.60;5.05;;;16.40;99.90;;;;;;5058308;28;20044;-77
2023/06/02 09:14:37;;;;;;;24.17;5.32;;;16.30;99.90;;;;;;5035464;28;20086;-77
2023/06/02 09:17:03;;;;;;;23.40;4.95;;;16.30;99.90;;;;;;5049740;28;20071;-77
2023/06/02 09:19:53;;;;;;;14.70;4.80;;;16.40;99.90;;;;;;5063917;28;20043;-77
2023/06/02 09:22:22;;;;;;;14.25;4.53;;;16.70;99.90;;;;;;5029019;28;20028;-77
2023/06/02 09:24:48;;;;;;;25.75;5.60;;;17.40;99.90;;;;;;5038843;28;20049;-78
2023/06/02 09:27:15;;;;;;;17.50;4.88;;;17.40;99.90;;;;;;5044192;28;20040;-78
2023/06/02 09:29:43;;;;;;;20.60;4.43;;;17.80;99.90;;;;;;5049126;28;20043;-79
2023/06/02 09:32:15;;;;;;;15.98;4.60;;;18.00;99.90;;;;;;5063953;28;20048;-78
2023/06/02 09:34:41;;;;;;;18.95;4.53;;;19.00;99.90;;;;;;5056483;28;20044;-79
2023/06/02 09:37:10;;;;;;;15.73;4.03;;;19.00;99.90;;;;;;5043244;28;20547;-78
2023/06/02 09:40:06;;;;;;;19.02;4.28;;;19.50;99.90;;;;;;5088136;28;20043;-78
2023/06/02 09:42:42;;;;;;;14.48;3.90;;;19.70;99.90;;;;;;5034966;28;20436;-78
2023/06/02 09:45:09;;;;;;;22.10;4.28;;;20.00;99.90;;;;;;5050807;28;20036;-78
2023/06/02 09:47:43;;;;;;;14.35;4.10;;;20.20;99.90;;;;;;5048773;28;20086;-78
2023/06/02 09:50:29;;;;;;;17.60;4.32;;;20.30;99.90;;;;;;5048339;28;20052;-78
2023/06/02 09:53:05;;;;;;;13.88;4.28;;;20.50;99.90;;;;;;5057324;28;20079;-78
2023/06/02 09:55:33;;;;;;;16.42;4.43;;;20.90;99.90;;;;;;5057570;28;20040;-78
2023/06/02 09:58:00;;;;;;;14.32;4.20;;;21.10;99.90;;;;;;5049371;28;20443;-78
2023/06/02 10:00:26;;;;;;;14.05;3.75;;;21.20;99.90;;;;;;5043547;28;20546;-78
2023/06/02 10:02:52;;;;;;;16.60;4.30;;;21.40;99.90;;;;;;5054893;28;20048;-78
2023/06/02 10:05:21;;;;;;;12.48;3.83;;;21.50;99.70;;;;;;5073361;28;20520;-78
2023/06/02 10:08:15;;;;;;;11.10;3.35;;;21.50;99.40;;;;;;5053076;28;20089;-78
2023/06/02 10:11:11;;;;;;;11.85;3.50;;;21.70;98.50;;;;;;5079924;28;20032;-78
2023/06/02 10:13:56;;;;;;;12.68;3.50;;;21.80;97.70;;;;;;5035533;28;20024;-78
2023/06/02 10:16:40;;;;;;;13.38;3.65;;;22.10;97.70;;;;;;5046235;28;20045;-78
2023/06/02 10:19:11;;;;;;;11.30;3.70;;;22.20;97.50;;;;;;5047148;28;20131;-78
2023/06/02 10:22:08;;;;;;;15.13;4.15;;;22.50;97.10;;;;;;5051713;28;20044;-78
2023/06/02 10:24:52;;;;;;;12.80;3.97;;;22.70;95.90;;;;;;5036079;28;20127;-78
2023/06/02 10:27:25;;;;;;;14.05;3.58;;;22.80;96.60;;;;;;5042359;28;20043;-78
2023/06/02 10:29:52;;;;;;;11.70;3.70;;;22.80;96.10;;;;;;5029308;28;20044;-78
2023/06/02 10:32:24;;;;;;;9.27;3.10;;;22.50;95.70;;;;;;5054860;28;20489;-78
2023/06/02 10:34:54;;;;;;;13.57;3.47;;;22.10;95.20;;;;;;5046411;28;21793;-78
2023/06/02 10:37:24;;;;;;;13.50;3.53;;;21.60;95.30;;;;;;5050269;28;20036;-78
2023/06/02 10:39:52;;;;;;;6.63;2.95;;;21.20;95.70;;;;;;5058250;28;20117;-78
2023/06/02 10:42:23;;;;;;;9.10;2.97;;;20.90;95.90;;;;;;5038029;28;20122;-78
2023/06/02 10:44:51;;;;;;;13.60;3.20;;;20.60;96.30;;;;;;5062769;28;20040;-79
2023/06/02 10:47:22;;;;;;;9.07;2.80;;;20.30;96.60;;;;;;5043621;28;20036;-80
2023/06/02 10:50:02;;;;;;;11.18;3.10;;;20.10;96.80;;;;;;5065514;28;20435;-78
2023/06/02 10:52:32;;;;;;;12.95;3.05;;;20.20;97.30;;;;;;5054979;28;20040;-78
2023/06/02 10:55:07;;;;;;;9.40;2.75;;;20.50;97.40;;;;;;5074763;28;20543;-78
2023/06/02 10:57:58;;;;;;;9.95;3.22;;;20.80;96.70;;;;;;5043745;28;20064;-79
2023/06/02 11:00:35;;;;;;;8.50;2.72;;;20.90;96.10;;;;;;5033788;28;21031;-78
2023/06/02 11:03:13;;;;;;;9.90;2.70;;;20.90;95.80;;;;;;5053267;28;20080;-78
2023/06/02 11:05:39;;;;;;;6.53;2.50;;;20.80;95.60;;;;;;5060904;28;20036;-79
2023/06/02 11:08:11;;;;;;;9.13;2.30;;;20.70;95.50;;;;;;5068599;28;20140;-79
2023/06/02 11:10:49;;;;;;;8.70;2.47;;;20.50;95.10;;;;;;5035049;28;20024;-79
2023/06/02 11:13:21;;;;;;;11.82;2.88;;;20.40;95.30;;;;;;5038158;28;20060;-78
2023/06/02 11:15:56;;;;;;;6.53;2.30;;;20.30;95.60;;;;;;5046440;28;20036;-78
2023/06/02 11:18:22;;;;;;;9.00;2.63;;;20.20;95.80;;;;;;5044516;28;20040;-78
2023/06/02 11:20:50;;;;;;;10.20;2.53;;;20.40;96.10;;;;;;5045811;28;20534;-78
2023/06/02 11:23:17;;;;;;;7.57;2.33;;;20.50;95.90;;;;;;5036697;28;20438;-79
2023/06/02 11:25:46;;;;;;;8.90;2.65;;;21.00;95.50;;;;;;5076833;28;20109;-78
2023/06/02 11:28:30;;;;;;;8.85;2.38;;;20.70;95.20;;;;;;5051680;28;20051;-79
2023/06/02 11:31:13;;;;;;;7.68;2.42;;;20.60;94.50;;;;;;5027515;28;20051;-79
2023/06/02 11:33:41;;;;;;;11.13;2.30;;;20.50;94.90;;;;;;5048820;28;20047;-76
2023/06/02 11:36:13;;;;;;;6.72;2.33;;;20.50;95.20;;;;;;5034223;28;20047;-76
2023/06/02 11:38:39;;;;;;;7.28;2.83;;;20.80;95.50;;;;;;5030050;28;20048;-77
2023/06/02 11:41:10;;;;;;;8.05;2.40;;;21.00;95.20;;;;;;5048538;28;20100;-78
2023/06/02 11:43:36;;;;;;;9.18;2.40;;;21.10;94.90;;;;;;5042171;28;20032;-78
2023/06/02 11:46:19;;;;;;;8.52;2.55;;;21.00;95.00;;;;;;5037158;28;20050;-79
2023/06/02 11:48:46;;;;;;;6.95;2.17;;;21.00;95.00;;;;;;5051735;28;20122;-79
2023/06/02 11:51:16;;;;;;;10.68;2.70;;;21.60;95.30;;;;;;5048904;28;20068;-80
2023/06/02 11:53:45;;;;;;;7.22;2.47;;;21.70;94.60;;;;;;5044339;28;20049;-78
2023/06/02 11:56:18;;;;;;;7.50;2.67;;;22.10;94.50;;;;;;5037650;28;20036;-79
2023/06/02 11:58:45;;;;;;;7.85;2.45;;;22.30;93.70;;;;;;5025775;28;20040;-79
2023/06/02 12:01:17;;;;;;;7.43;2.47;;;22.20;93.40;;;;;;5050409;28;20523;-78
2023/06/02 12:04:39;;;;;;;8.60;2.33;;;22.00;92.60;;;;;;5065558;28;20072;-78
2023/06/02 12:07:05;;;;;;;5.30;1.83;;;21.70;92.00;;;;;;5048990;28;20043;-79
2023/06/02 12:09:33;;;;;;;7.93;2.30;;;21.60;92.50;;;;;;5047444;28;20041;-79
2023/06/02 12:12:07;;;;;;;6.53;1.80;;;21.30;92.40;;;;;;5054710;28;20047;-77
2023/06/02 12:14:38;;;;;;;7.45;2.25;;;21.40;92.30;;;;;;5051330;28;20040;-79
2023/06/02 12:17:05;;;;;;;;;;;21.50;92.50;;;;;;5053209;28;20082;-78
2023/06/02 12:19:31;;;;;;;5.68;1.92;;;21.60;93.10;;;;;;5043152;28;19963;-77
2023/06/02 12:22:10;;;;;;;7.82;2.05;;;21.90;92.70;;;;;;5046766;28;20072;-79
2023/06/02 12:24:37;;;;;;;3.90;1.75;;;22.30;92.10;;;;;;5046462;28;20043;-79
2023/06/02 12:27:04;;;;;;;6.40;1.63;;;22.80;92.10;;;;;;5051275;28;20043;-79
2023/06/02 12:29:30;;;;;;;5.43;2.05;;;22.60;91.60;;;;;;5032691;28;20048;-81
2023/06/02 12:32:02;;;;;;;5.57;1.70;;;22.50;90.70;;;;;;5035824;28;20032;-81
2023/06/02 12:34:28;;;;;;;4.72;1.70;;;22.50;90.70;;;;;;5039151;28;20036;-78
2023/06/02 12:36:55;;;;;;;5.65;2.00;;;22.90;90.90;;;;;;5055833;28;20097;-79
2023/06/02 12:39:21;;;;;;;5.00;1.75;;;22.60;90.20;;;;;;5038204;28;20063;-79
2023/06/02 12:41:47;;;;;;;7.25;2.10;;;22.50;89.00;;;;;;5048463;28;20559;-80
2023/06/02 12:44:13;;;;;;;6.15;2.08;;;22.20;88.80;;;;;;5035307;28;20047;-83